Time;durP1;ratioP1;P1;durP2;ratioP2;P2;SDS_P1;SDS_P2;PMS_P1;PMS_P2;Temp;Humidity;BMP_temperature;BMP_pressure;BME280_temperature;BME280_humidity;BME280_pressure;Samples;Min_cycle;Max_cycle;Signal;HPM_P1;HPM_P2
2023/10/15 00:00:24;;;;;;;4.00;0.75;;;;;;;;;;5111887;28;20052;-81
2023/10/15 00:02:51;;;;;;;2.67;0.70;;;;;;;;;;5112417;28;20105;-80
2023/10/15 00:05:21;;;;;;;2.88;0.65;;;;;;;;;;5111804;28;20043;-76
2023/10/15 00:07:48;;;;;;;2.13;0.60;;;;;;;;;;5111411;28;20044;-78
2023/10/15 00:10:21;;;;;;;1.30;0.63;;;;;;;;;;5111421;28;20043;-79
2023/10/15 00:12:52;;;;;;;5.03;1.05;;;;;;;;;;5111693;28;20522;-77
2023/10/15 00:15:23;;;;;;;20.40;7.40;;;;;;;;;;5111432;28;20074;-79
2023/10/15 00:17:52;;;;;;;14.55;6.13;;;;;;;;;;5111557;28;20068;-78
2023/10/15 00:20:20;;;;;;;9.38;4.10;;;;;;;;;;5110999;28;20048;-72
2023/10/15 00:22:49;;;;;;;6.03;2.45;;;;;;;;;;5111134;28;20043;-78
2023/10/15 00:25:19;;;;;;;3.45;1.63;;;;;;;;;;5111227;28;20048;-76
2023/10/15 00:27:57;;;;;;;;;;;;;;;;;;5111539;28;20043;-76
2023/10/15 00:30:33;;;;;;;1.88;0.90;;;;;;;;;;5110963;28;19920;-80
2023/10/15 00:33:08;;;;;;;2.67;0.70;;;;;;;;;;5111255;28;20530;-80
2023/10/15 00:35:35;;;;;;;1.02;0.60;;;;;;;;;;5111500;28;20048;-78
2023/10/15 00:38:11;;;;;;;1.10;0.68;;;;;;;;;;5110842;28;20150;-80
2023/10/15 00:40:38;;;;;;;2.92;0.60;;;;;;;;;;5111033;28;20443;-80
2023/10/15 00:43:05;;;;;;;4.05;0.65;;;;;;;;;;5110998;28;20050;-81
2023/10/15 00:45:44;;;;;;;2.90;0.57;;;;;;;;;;5110818;28;20087;-79
2023/10/15 00:48:24;;;;;;;2.35;0.80;;;;;;;;;;5111200;28;20483;-80
2023/10/15 00:50:53;;;;;;;4.95;0.90;;;;;;;;;;5110825;28;20147;-77
2023/10/15 00:53:24;;;;;;;2.70;0.60;;;;;;;;;;5110813;28;20059;-79
2023/10/15 00:56:04;;;;;;;4.97;0.75;;;;;;;;;;5110911;28;20495;-77
2023/10/15 01:03:53;;;;;;;2.78;0.80;;;;;;;;;;5110576;28;20043;-69
2023/10/15 01:08:53;;;;;;;4.95;1.27;;;;;;;;;;5110223;28;20100;-80
2023/10/15 01:11:20;;;;;;;2.45;0.60;;;;;;;;;;5110613;28;20043;-78
2023/10/15 01:13:46;;;;;;;5.47;0.70;;;;;;;;;;5110849;28;20123;-81
2023/10/15 01:16:17;;;;;;;6.00;0.90;;;;;;;;;;5105462;28;20052;-80
2023/10/15 01:19:14;;;;;;;1.95;0.73;;;;;;;;;;5105705;28;20568;-75
2023/10/15 01:21:53;;;;;;;4.75;0.82;;;;;;;;;;5089931;28;20040;-76
2023/10/15 01:24:22;;;;;;;4.03;0.90;;;;;;;;;;5090044;28;20043;-81
2023/10/15 01:29:41;;;;;;;2.35;0.77;;;;;;;;;;5089733;28;20442;-81
2023/10/15 01:32:22;;;;;;;3.90;0.77;;;;;;;;;;5089202;28;20131;-80
2023/10/15 01:34:50;;;;;;;5.63;0.80;;;;;;;;;;5089844;28;20454;-81
2023/10/15 01:39:49;;;;;;;1.85;0.60;;;;;;;;;;5089557;28;20139;-80
2023/10/15 01:50:23;;;;;;;4.72;0.88;;;;;;;;;;5089862;28;20067;-82
2023/10/15 01:52:54;;;;;;;3.78;0.77;;;;;;;;;;5089436;28;20137;-80
2023/10/15 01:55:21;;;;;;;;;;;;;;;;;;5089771;28;20396;-79
2023/10/15 01:57:51;;;;;;;3.28;0.70;;;;;;;;;;5089137;28;19927;-75
2023/10/15 02:03:19;;;;;;;3.55;1.08;;;;;;;;;;5054863;28;20051;-81
2023/10/15 02:05:46;;;;;;;3.30;0.75;;;;;;;;;;5105060;28;20044;-80
2023/10/15 02:08:23;;;;;;;2.05;0.80;;;;;;;;;;5088473;28;20079;-79
2023/10/15 02:10:51;;;;;;;3.45;0.90;;;;;;;;;;5089399;28;20062;-80
2023/10/15 02:13:22;;;;;;;3.92;0.80;;;;;;;;;;5088945;28;20489;-81
2023/10/15 02:15:49;;;;;;;1.77;0.60;;;;;;;;;;5094866;28;20427;-80
2023/10/15 02:18:19;;;;;;;2.92;0.90;;;;;;;;;;5109334;28;20127;-74
2023/10/15 02:21:00;;;;;;;2.10;0.70;;;;;;;;;;5109662;28;20069;-80
2023/10/15 02:23:32;;;;;;;2.38;0.80;;;;;;;;;;5108718;28;20048;-79
2023/10/15 02:25:59;;;;;;;4.70;0.90;;;;;;;;;;5109642;28;20117;-80
2023/10/15 02:28:32;;;;;;;4.28;0.75;;;;;;;;;;5108701;28;20047;-78
2023/10/15 02:31:22;;;;;;;2.22;0.77;;;;;;;;;;5108972;28;20047;-76
2023/10/15 02:33:47;;;;;;;5.75;0.70;;;;;;;;;;5108601;28;20502;-80
2023/10/15 02:36:17;;;;;;;3.72;0.63;;;;;;;;;;5108936;28;20040;-81
2023/10/15 02:38:53;;;;;;;5.93;1.00;;;;;;;;;;5108284;28;20048;-81
2023/10/15 02:41:40;;;;;;;4.70;1.00;;;;;;;;;;5109180;28;20050;-73
2023/10/15 02:44:18;;;;;;;3.72;0.70;;;;;;;;;;5108657;28;20039;-79
2023/10/15 02:46:48;;;;;;;3.28;0.68;;;;;;;;;;5109405;28;20048;-80
2023/10/15 02:49:15;;;;;;;6.53;0.90;;;;;;;;;;5108795;28;20040;-79
2023/10/15 02:51:45;;;;;;;2.20;0.75;;;;;;;;;;5108672;28;20047;-75
2023/10/15 02:54:27;;;;;;;2.67;0.60;;;;;;;;;;5108532;28;20475;-76
2023/10/15 02:56:59;;;;;;;6.15;1.02;;;;;;;;;;5108797;28;20525;-81
2023/10/15 02:59:30;;;;;;;2.97;0.75;;;;;;;;;;5108990;28;20044;-79
2023/10/15 03:02:06;;;;;;;6.82;0.90;;;;;;;;;;5109288;28;20039;-81
2023/10/15 03:04:33;;;;;;;3.80;1.00;;;;;;;;;;5108850;28;20039;-70
2023/10/15 03:09:51;;;;;;;4.82;0.85;;;;;;;;;;5108505;28;20047;-68
2023/10/15 03:12:18;;;;;;;7.03;0.80;;;;;;;;;;5108631;28;20048;-69
2023/10/15 03:14:45;;;;;;;3.30;0.50;;;;;;;;;;5109055;28;20123;-80
2023/10/15 03:17:24;;;;;;;4.97;0.88;;;;;;;;;;5108456;28;20086;-74
2023/10/15 03:19:54;;;;;;;2.72;0.63;;;;;;;;;;5109185;28;20067;-80
2023/10/15 03:22:25;;;;;;;4.43;0.90;;;;;;;;;;5108529;28;20463;-80
2023/10/15 03:24:53;;;;;;;2.40;0.60;;;;;;;;;;5108647;28;20113;-79
2023/10/15 03:27:26;;;;;;;3.67;0.73;;;;;;;;;;5108801;28;20040;-80
2023/10/15 03:29:56;;;;;;;1.08;0.65;;;;;;;;;;5109027;28;20054;-81
2023/10/15 03:32:37;;;;;;;2.90;0.70;;;;;;;;;;5108858;28;20048;-80
2023/10/15 03:38:13;;;;;;;7.07;0.63;;;;;;;;;;5073665;28;19927;-81
2023/10/15 03:40:47;;;;;;;4.55;0.80;;;;;;;;;;5108626;28;20044;-81
2023/10/15 03:43:20;;;;;;;2.65;0.60;;;;;;;;;;5108664;28;20058;-80
2023/10/15 03:45:53;;;;;;;4.18;0.70;;;;;;;;;;5107794;28;20043;-81
2023/10/15 03:48:27;;;;;;;3.28;0.73;;;;;;;;;;5108524;28;20104;-80
2023/10/15 03:50:55;;;;;;;1.92;0.70;;;;;;;;;;5108502;28;20088;-74
2023/10/15 03:53:29;;;;;;;4.50;0.70;;;;;;;;;;5108101;28;20051;-78
2023/10/15 03:56:00;;;;;;;3.72;0.80;;;;;;;;;;5109112;28;20047;-76
2023/10/15 03:58:28;;;;;;;2.20;0.60;;;;;;;;;;5111970;28;20050;-80
2023/10/15 04:01:17;;;;;;;3.50;0.75;;;;;;;;;;5112039;28;20560;-73
2023/10/15 04:03:47;;;;;;;4.10;0.80;;;;;;;;;;5111703;28;20054;-79
2023/10/15 04:06:18;;;;;;;2.67;0.70;;;;;;;;;;5112255;28;20055;-80
2023/10/15 04:09:09;;;;;;;;;;;;;;;;;;5112214;28;20048;-76
2023/10/15 04:11:42;;;;;;;5.13;0.70;;;;;;;;;;5112349;28;19920;-69
2023/10/15 04:14:28;;;;;;;6.45;0.73;;;;;;;;;;5111718;28;20608;-68
2023/10/15 04:16:59;;;;;;;2.45;0.65;;;;;;;;;;5111805;28;20058;-75
2023/10/15 04:19:26;;;;;;;;;;;;;;;;;;5111852;28;20077;-77
2023/10/15 04:21:59;;;;;;;3.20;0.80;;;;;;;;;;5111686;28;19927;-80
2023/10/15 04:24:38;;;;;;;4.32;0.80;;;;;;;;;;5111330;28;20044;-80
2023/10/15 04:27:15;;;;;;;3.20;0.68;;;;;;;;;;5112065;28;20039;-81
2023/10/15 04:29:54;;;;;;;5.25;0.98;;;;;;;;;;5111535;28;20583;-80
2023/10/15 04:35:04;;;;;;;4.75;0.90;;;;;;;;;;5111676;28;20051;-79
2023/10/15 04:37:35;;;;;;;2.42;0.70;;;;;;;;;;5111696;28;20044;-80
2023/10/15 04:40:05;;;;;;;4.50;0.65;;;;;;;;;;5111090;28;20127;-77
2023/10/15 04:42:51;;;;;;;4.18;0.82;;;;;;;;;;5111739;28;20067;-80
2023/10/15 04:45:41;;;;;;;4.50;0.80;;;;;;;;;;5093441;28;20043;-80
2023/10/15 04:48:15;;;;;;;3.42;0.80;;;;;;;;;;5111300;28;20097;-81
2023/10/15 04:50:43;;;;;;;4.57;0.75;;;;;;;;;;5111193;28;20548;-79
2023/10/15 04:53:23;;;;;;;6.13;0.80;;;;;;;;;;5110916;28;20340;-76
2023/10/15 04:55:52;;;;;;;4.10;1.10;;;;;;;;;;5110984;28;20051;-75
2023/10/15 04:58:20;;;;;;;5.60;0.70;;;;;;;;;;5111254;28;20093;-76
2023/10/15 05:00:48;;;;;;;2.30;0.60;;;;;;;;;;5110948;28;20536;-73
2023/10/15 05:03:16;;;;;;;2.97;0.70;;;;;;;;;;5111272;28;20043;-83
2023/10/15 05:05:44;;;;;;;2.47;0.70;;;;;;;;;;5111378;28;20130;-80
2023/10/15 05:08:11;;;;;;;2.95;0.60;;;;;;;;;;5110304;28;20043;-78
2023/10/15 05:10:50;;;;;;;4.45;0.95;;;;;;;;;;5110417;28;20051;-78
2023/10/15 05:13:18;;;;;;;3.50;0.55;;;;;;;;;;5110575;28;20487;-80
2023/10/15 05:15:48;;;;;;;3.20;0.80;;;;;;;;;;5110151;28;20441;-79
2023/10/15 05:18:18;;;;;;;2.92;1.00;;;;;;;;;;5110848;28;20067;-81
2023/10/15 05:20:50;;;;;;;3.38;0.90;;;;;;;;;;5110596;28;20135;-81
2023/10/15 05:23:18;;;;;;;7.50;1.05;;;;;;;;;;5110546;28;20055;-79
2023/10/15 05:25:46;;;;;;;3.10;0.68;;;;;;;;;;5110347;28;20047;-77
2023/10/15 05:28:14;;;;;;;3.45;0.70;;;;;;;;;;5110429;28;20050;-80
2023/10/15 05:30:42;;;;;;;3.88;1.13;;;;;;;;;;5109108;28;20047;-81
2023/10/15 05:33:09;;;;;;;5.78;0.85;;;;;;;;;;5110568;28;20047;-78
2023/10/15 05:35:37;;;;;;;4.60;0.95;;;;;;;;;;5110174;28;20608;-80
2023/10/15 05:38:08;;;;;;;7.97;0.93;;;;;;;;;;5110139;28;20043;-81
2023/10/15 05:40:37;;;;;;;3.40;0.70;;;;;;;;;;5110200;28;20044;-77
2023/10/15 05:43:07;;;;;;;1.88;0.60;;;;;;;;;;5110299;28;20048;-81
2023/10/15 05:45:34;;;;;;;5.40;0.87;;;;;;;;;;5110019;28;20070;-83
2023/10/15 05:48:00;;;;;;;7.75;0.90;;;;;;;;;;5110011;28;20430;-81
2023/10/15 05:50:28;;;;;;;3.58;0.85;;;;;;;;;;5109847;28;20051;-79
2023/10/15 05:52:54;;;;;;;1.60;0.57;;;;;;;;;;5109657;28;20418;-82
2023/10/15 05:55:21;;;;;;;2.80;0.85;;;;;;;;;;5109574;28;20515;-70
2023/10/15 05:57:48;;;;;;;4.22;0.77;;;;;;;;;;5110314;28;20048;-81
2023/10/15 06:00:18;;;;;;;5.93;0.80;;;;;;;;;;5109307;28;20519;-82
2023/10/15 06:02:46;;;;;;;4.20;0.98;;;;;;;;;;5109665;28;20050;-80
2023/10/15 06:05:14;;;;;;;3.88;0.80;;;;;;;;;;5109641;28;20043;-78
2023/10/15 06:07:41;;;;;;;2.78;0.73;;;;;;;;;;5091765;28;20067;-81
2023/10/15 06:10:09;;;;;;;3.53;0.90;;;;;;;;;;5109048;28;20047;-82
2023/10/15 06:12:38;;;;;;;6.95;1.33;;;;;;;;;;5109437;28;20052;-82
2023/10/15 06:15:06;;;;;;;1.70;0.93;;;;;;;;;;5109681;28;20044;-81
2023/10/15 06:17:33;;;;;;;4.72;1.20;;;;;;;;;;5109551;28;20495;-81
2023/10/15 06:20:12;;;;;;;4.75;1.10;;;;;;;;;;5108504;28;20533;-81
2023/10/15 06:22:46;;;;;;;6.07;0.90;;;;;;;;;;5109253;28;20134;-81
2023/10/15 06:25:16;;;;;;;2.75;0.80;;;;;;;;;;5109309;28;20047;-81
2023/10/15 06:27:43;;;;;;;5.30;0.98;;;;;;;;;;5109646;28;20410;-78
2023/10/15 06:30:17;;;;;;;4.47;0.85;;;;;;;;;;5109199;28;20524;-80
2023/10/15 06:32:50;;;;;;;4.30;1.08;;;;;;;;;;5109670;28;20047;-78
2023/10/15 06:35:18;;;;;;;2.70;0.80;;;;;;;;;;5109499;28;20497;-81
2023/10/15 06:37:49;;;;;;;3.15;0.80;;;;;;;;;;5109621;28;20050;-81
2023/10/15 06:40:16;;;;;;;2.00;0.70;;;;;;;;;;5109242;28;20046;-81
2023/10/15 06:42:49;;;;;;;3.45;0.88;;;;;;;;;;5109326;28;20468;-79
2023/10/15 06:45:19;;;;;;;3.92;0.80;;;;;;;;;;5109074;28;20043;-78
2023/10/15 06:47:51;;;;;;;7.60;0.77;;;;;;;;;;5109637;28;20048;-82
2023/10/15 06:50:21;;;;;;;8.35;1.00;;;;;;;;;;5091479;28;20050;-80
2023/10/15 06:52:52;;;;;;;4.57;0.90;;;;;;;;;;5109133;28;20059;-81
2023/10/15 06:55:22;;;;;;;4.10;0.90;;;;;;;;;;5091424;28;20130;-75
2023/10/15 06:57:50;;;;;;;7.13;0.75;;;;;;;;;;5109548;28;20082;-80
2023/10/15 07:00:24;;;;;;;6.30;0.80;;;;;;;;;;5109108;28;20127;-81
2023/10/15 07:02:53;;;;;;;6.85;1.05;;;;;;;;;;5109199;28;20048;-79
2023/10/15 07:05:23;;;;;;;4.30;0.80;;;;;;;;;;5109014;28;20490;-78
2023/10/15 07:07:50;;;;;;;4.53;1.03;;;;;;;;;;5108676;28;20511;-80
2023/10/15 07:10:18;;;;;;;2.55;0.70;;;;;;;;;;5108823;28;20150;-80
2023/10/15 07:12:46;;;;;;;3.00;0.77;;;;;;;;;;5109292;28;20040;-81
2023/10/15 07:15:13;;;;;;;6.15;0.82;;;;;;;;;;5108885;28;20044;-81
2023/10/15 07:17:41;;;;;;;5.18;0.90;;;;;;;;;;5091022;28;20503;-81
2023/10/15 07:20:14;;;;;;;3.53;1.00;;;;;;;;;;5090881;28;20060;-80
2023/10/15 07:22:43;;;;;;;3.05;0.80;;;;;;;;;;5109125;28;20495;-82
2023/10/15 07:25:10;;;;;;;3.80;0.80;;;;;;;;;;5108364;28;20051;-81
2023/10/15 07:27:41;;;;;;;2.78;0.75;;;;;;;;;;5109152;28;20082;-81
2023/10/15 07:30:16;;;;;;;4.32;0.80;;;;;;;;;;5109565;28;20071;-76
2023/10/15 07:32:44;;;;;;;3.38;0.80;;;;;;;;;;5112543;28;20039;-80
2023/10/15 07:35:13;;;;;;;2.17;0.80;;;;;;;;;;5112338;28;20624;-80
2023/10/15 07:37:45;;;;;;;2.47;0.82;;;;;;;;;;5112586;28;20047;-81
2023/10/15 07:40:16;;;;;;;6.25;1.25;;;;;;;;;;5112763;28;20097;-71
2023/10/15 07:42:52;;;;;;;3.47;0.80;;;;;;;;;;5113071;28;20122;-81
2023/10/15 07:45:20;;;;;;;4.53;0.90;;;;;;;;;;5094763;28;20043;-68
2023/10/15 07:47:47;;;;;;;3.42;0.80;;;;;;;;;;5112619;28;20043;-70
2023/10/15 07:50:23;;;;;;;2.97;0.90;;;;;;;;;;5112191;28;20051;-81
2023/10/15 07:52:51;;;;;;;3.00;0.85;;;;;;;;;;5112008;28;20127;-80
2023/10/15 07:55:18;;;;;;;2.15;0.80;;;;;;;;;;5112375;28;20048;-79
2023/10/15 07:57:46;;;;;;;4.03;0.90;;;;;;;;;;5112587;28;20047;-81
2023/10/15 08:00:16;;;;;;;7.75;1.00;;;;;;;;;;5112140;28;20479;-80
2023/10/15 08:02:45;;;;;;;5.28;1.25;;;;;;;;;;5112313;28;20056;-80
2023/10/15 08:05:13;;;;;;;2.80;0.90;;;;;;;;;;5112628;28;20071;-82
2023/10/15 08:07:43;;;;;;;3.20;0.73;;;;;;;;;;5112266;28;20050;-76
2023/10/15 08:10:10;;;;;;;3.22;0.70;;;;;;;;;;5111510;28;20044;-81
2023/10/15 08:12:37;;;;;;;3.28;0.80;;;;;;;;;;5112365;28;20040;-81
2023/10/15 08:15:06;;;;;;;4.40;1.23;;;;;;;;;;5112110;28;20503;-80
2023/10/15 08:17:33;;;;;;;3.17;0.90;;;;;;;;;;5111899;28;20039;-80
2023/10/15 08:20:00;;;;;;;2.72;0.98;;;;;;;;;;5111948;28;20408;-71
2023/10/15 08:22:28;;;;;;;4.57;0.80;;;;;;;;;;5111644;28;20054;-78
2023/10/15 08:24:55;;;;;;;2.03;0.60;;;;;;;;;;5111533;28;20663;-79
2023/10/15 08:27:22;;;;;;;3.50;1.00;;;;;;;;;;5111737;28;20044;-82
2023/10/15 08:29:49;;;;;;;7.32;2.13;;;;;;;;;;5111496;28;20051;-80
2023/10/15 08:32:18;;;;;;;6.75;1.00;;;;;;;;;;5111298;28;20043;-79
2023/10/15 08:34:46;;;;;;;5.63;1.02;;;;;;;;;;5111685;28;20506;-82
2023/10/15 08:37:13;;;;;;;2.85;0.90;;;;;;;;;;5111426;28;20069;-78
2023/10/15 08:39:40;;;;;;;3.97;0.93;;;;;;;;;;5111254;28;20058;-81
2023/10/15 08:42:18;;;;;;;3.25;0.88;;;;;;;;;;5110387;28;20040;-78
2023/10/15 08:44:47;;;;;;;3.95;0.93;;;;;;;;;;5111736;28;20043;-77
2023/10/15 08:47:14;;;;;;;4.45;1.10;;;;;;;;;;5111136;28;20499;-80
2023/10/15 08:49:47;;;;;;;5.50;1.35;;;;;;;;;;5111729;28;20088;-80
2023/10/15 08:52:16;;;;;;;4.40;1.02;;;;;;;;;;5111015;28;20058;-76
2023/10/15 08:54:45;;;;;;;2.83;0.90;;;;;;;;;;5110740;28;20054;-82
2023/10/15 08:57:13;;;;;;;6.28;1.05;;;;;;;;;;5111248;28;20044;-79
2023/10/15 08:59:41;;;;;;;4.20;0.80;;;;;;;;;;5111297;28;20423;-81
2023/10/15 09:02:08;;;;;;;1.90;0.85;;;;;;;;;;5110382;28;20500;-80
2023/10/15 09:04:36;;;;;;;4.70;1.00;;;;;;;;;;5111010;28;20047;-80
2023/10/15 09:07:03;;;;;;;4.07;0.85;;;;;;;;;;5110650;28;20495;-81
2023/10/15 09:09:32;;;;;;;4.50;0.80;;;;;;;;;;5110914;28;20086;-80
2023/10/15 09:12:00;;;;;;;4.57;0.95;;;;;;;;;;5110984;28;20041;-76
2023/10/15 09:14:56;;;;;;;2.85;0.88;;;;;;;;;;5111122;28;20083;-78
2023/10/15 09:17:25;;;;;;;5.07;1.00;;;;;;;;;;5057995;28;20045;-80
2023/10/15 09:19:52;;;;;;;3.60;0.90;;;;;;;;;;5070483;28;20048;-82
2023/10/15 09:22:19;;;;;;;3.85;0.85;;;;;;;;;;5069663;28;20485;-76
2023/10/15 09:24:46;;;;;;;3.47;1.10;;;;;;;;;;5069752;28;20040;-80
2023/10/15 09:27:13;;;;;;;3.60;0.88;;;;;;;;;;5070068;28;20055;-79
2023/10/15 09:29:43;;;;;;;4.25;1.00;;;;;;;;;;5070039;28;20650;-76
2023/10/15 09:32:10;;;;;;;6.30;0.95;;;;;;;;;;5069377;28;20052;-81
2023/10/15 09:34:37;;;;;;;2.75;1.25;;;;;;;;;;5069773;28;20044;-83
2023/10/15 09:37:07;;;;;;;3.88;1.00;;;;;;;;;;5070019;28;20521;-82
2023/10/15 09:39:35;;;;;;;2.97;0.77;;;;;;;;;;5084983;28;20490;-80
2023/10/15 09:42:02;;;;;;;3.42;0.75;;;;;;;;;;5069527;28;20090;-82
2023/10/15 09:44:32;;;;;;;5.10;0.98;;;;;;;;;;5070102;28;20072;-82
2023/10/15 09:47:01;;;;;;;7.82;0.98;;;;;;;;;;5069825;28;20044;-82
2023/10/15 09:49:33;;;;;;;4.63;1.08;;;;;;;;;;5069972;28;20118;-82
2023/10/15 09:52:05;;;;;;;4.28;0.70;;;;;;;;;;5069151;28;20048;-81
2023/10/15 09:54:33;;;;;;;4.32;0.80;;;;;;;;;;5069203;28;20079;-82
2023/10/15 09:57:05;;;;;;;5.28;1.20;;;;;;;;;;5069119;28;20044;-82
2023/10/15 09:59:32;;;;;;;2.40;0.88;;;;;;;;;;5069843;28;20055;-82
2023/10/15 10:02:06;;;;;;;4.22;0.85;;;;;;;;;;5069325;28;20068;-81
2023/10/15 10:05:06;;;;;;;4.05;1.17;;;;;;;;;;5069504;28;20139;-80
2023/10/15 10:07:58;;;;;;;2.33;0.80;;;;;;;;;;5069080;28;20463;-82
2023/10/15 10:10:32;;;;;;;5.15;1.20;;;;;;;;;;5069557;28;20044;-81
2023/10/15 10:13:28;;;;;;;1.45;0.70;;;;;;;;;;5068976;28;20095;-82
2023/10/15 10:15:58;;;;;;;3.08;0.80;;;;;;;;;;5064817;28;20055;-81
2023/10/15 10:18:27;;;;;;;3.33;0.95;;;;;;;;;;5109923;28;20040;-82
2023/10/15 10:20:56;;;;;;;4.03;0.98;;;;;;;;;;5110000;28;20056;-81
2023/10/15 10:23:22;;;;;;;3.40;0.98;;;;;;;;;;5109096;28;20043;-82
2023/10/15 10:26:12;;;;;;;5.25;1.10;;;;;;;;;;5109585;28;20050;-79
2023/10/15 10:28:40;;;;;;;4.68;1.00;;;;;;;;;;5109634;28;20048;-81
2023/10/15 10:31:07;;;;;;;3.17;1.27;;;;;;;;;;5109334;28;20079;-76
2023/10/15 10:33:43;;;;;;;3.25;1.10;;;;;;;;;;5109379;28;20047;-82
2023/10/15 10:36:21;;;;;;;5.97;1.02;;;;;;;;;;5109449;28;20054;-81
2023/10/15 10:39:00;;;;;;;1.85;0.80;;;;;;;;;;5090584;28;20078;-81
2023/10/15 10:41:35;;;;;;;5.15;1.13;;;;;;;;;;5109843;28;20047;-81
2023/10/15 10:44:04;;;;;;;3.47;1.17;;;;;;;;;;5109352;28;20043;-82
2023/10/15 10:46:52;;;;;;;3.88;1.00;;;;;;;;;;5109162;28;20044;-82
2023/10/15 10:49:39;;;;;;;3.47;1.13;;;;;;;;;;5109028;28;20730;-82
2023/10/15 10:52:14;;;;;;;2.65;0.90;;;;;;;;;;5109477;28;20063;-82
2023/10/15 10:54:42;;;;;;;3.22;1.02;;;;;;;;;;5109044;28;20062;-80
2023/10/15 10:57:09;;;;;;;3.78;1.00;;;;;;;;;;5109228;28;20050;-76
2023/10/15 10:59:38;;;;;;;3.25;0.88;;;;;;;;;;5109455;28;20044;-80
2023/10/15 11:02:06;;;;;;;2.78;0.80;;;;;;;;;;5109609;28;20065;-78
2023/10/15 11:04:33;;;;;;;3.47;0.80;;;;;;;;;;5109334;28;20044;-80
2023/10/15 11:07:00;;;;;;;2.70;0.85;;;;;;;;;;5094719;28;20042;-78
2023/10/15 11:09:28;;;;;;;2.72;0.82;;;;;;;;;;5112949;28;20063;-80
2023/10/15 11:11:56;;;;;;;3.92;0.88;;;;;;;;;;5095402;28;20047;-80
2023/10/15 11:14:29;;;;;;;2.85;0.80;;;;;;;;;;5113011;28;20562;-82
2023/10/15 11:16:56;;;;;;;3.35;0.73;;;;;;;;;;5112835;28;20054;-81
2023/10/15 11:19:30;;;;;;;2.90;0.90;;;;;;;;;;5113080;28;20039;-82
2023/10/15 11:21:57;;;;;;;2.30;0.70;;;;;;;;;;5113280;28;20044;-81
2023/10/15 11:24:25;;;;;;;2.83;0.80;;;;;;;;;;5112723;28;20051;-80
2023/10/15 11:26:54;;;;;;;1.80;0.70;;;;;;;;;;5113114;28;20140;-80
2023/10/15 11:29:23;;;;;;;1.45;0.57;;;;;;;;;;5112913;28;20044;-79
2023/10/15 11:31:53;;;;;;;3.15;0.57;;;;;;;;;;5112880;28;20043;-80
2023/10/15 11:34:24;;;;;;;1.48;0.63;;;;;;;;;;5094313;28;20043;-81
2023/10/15 11:36:55;;;;;;;4.07;0.88;;;;;;;;;;5095302;28;20044;-80
2023/10/15 11:39:25;;;;;;;3.83;0.88;;;;;;;;;;5112209;28;20044;-77
2023/10/15 11:41:55;;;;;;;1.98;0.73;;;;;;;;;;5112298;28;20135;-81
2023/10/15 11:44:30;;;;;;;1.98;0.75;;;;;;;;;;5112365;28;20079;-81
2023/10/15 11:47:08;;;;;;;2.28;0.80;;;;;;;;;;5112805;28;20187;-80
2023/10/15 11:49:42;;;;;;;2.40;0.65;;;;;;;;;;5112083;28;20043;-80
2023/10/15 11:52:14;;;;;;;3.13;1.00;;;;;;;;;;5112237;28;20048;-80
2023/10/15 11:54:49;;;;;;;4.28;0.80;;;;;;;;;;5111532;28;20047;-81
2023/10/15 11:57:24;;;;;;;2.08;0.80;;;;;;;;;;5111998;28;20660;-80
2023/10/15 11:59:52;;;;;;;2.67;0.70;;;;;;;;;;5111710;28;20044;-80
2023/10/15 12:02:25;;;;;;;2.88;0.73;;;;;;;;;;5112308;28;20046;-79
2023/10/15 12:04:56;;;;;;;3.00;0.93;;;;;;;;;;5093770;28;20551;-79
2023/10/15 12:07:25;;;;;;;5.70;1.20;;;;;;;;;;5111885;28;20044;-77
2023/10/15 12:09:51;;;;;;;2.22;0.68;;;;;;;;;;5111233;28;20043;-75
2023/10/15 12:12:18;;;;;;;2.08;0.80;;;;;;;;;;5111761;28;20620;-80
2023/10/15 12:14:45;;;;;;;3.10;0.80;;;;;;;;;;5111652;28;20074;-72
2023/10/15 12:17:15;;;;;;;2.53;0.88;;;;;;;;;;5110319;28;20060;-73
2023/10/15 12:19:44;;;;;;;1.98;0.70;;;;;;;;;;5111459;28;20489;-81
2023/10/15 12:22:14;;;;;;;2.53;1.10;;;;;;;;;;5111766;28;20123;-81
2023/10/15 12:24:42;;;;;;;3.15;1.10;;;;;;;;;;5111402;28;20047;-80
2023/10/15 12:27:09;;;;;;;3.72;1.02;;;;;;;;;;5111664;28;20050;-79
2023/10/15 12:29:38;;;;;;;2.63;0.68;;;;;;;;;;5111430;28;20134;-80
2023/10/15 12:32:09;;;;;;;3.72;0.90;;;;;;;;;;5111543;28;20044;-79
2023/10/15 12:34:39;;;;;;;3.72;0.90;;;;;;;;;;5111455;28;20048;-81
2023/10/15 12:37:07;;;;;;;2.22;0.70;;;;;;;;;;5111482;28;20051;-81
2023/10/15 12:39:35;;;;;;;2.83;0.90;;;;;;;;;;5110968;28;20050;-80
2023/10/15 12:42:05;;;;;;;3.92;1.10;;;;;;;;;;5111329;28;20043;-80
2023/10/15 12:44:36;;;;;;;1.90;0.82;;;;;;;;;;5111133;28;20446;-81
2023/10/15 12:47:03;;;;;;;2.85;1.02;;;;;;;;;;5111179;28;20122;-80
2023/10/15 12:49:31;;;;;;;2.22;0.75;;;;;;;;;;5111222;28;20074;-81
2023/10/15 12:51:58;;;;;;;2.78;0.70;;;;;;;;;;5111214;28;20147;-80
2023/10/15 12:54:25;;;;;;;3.60;0.70;;;;;;;;;;5110378;28;20395;-77
2023/10/15 12:56:53;;;;;;;4.05;0.90;;;;;;;;;;5093374;28;20043;-79
2023/10/15 12:59:20;;;;;;;2.30;0.80;;;;;;;;;;5111357;28;20497;-80
2023/10/15 13:01:47;;;;;;;2.33;0.90;;;;;;;;;;5110976;28;20090;-80
2023/10/15 13:04:13;;;;;;;2.63;0.80;;;;;;;;;;5111115;28;20076;-81
2023/10/15 13:06:41;;;;;;;1.52;0.68;;;;;;;;;;5111365;28;20047;-77
2023/10/15 13:09:19;;;;;;;1.85;0.70;;;;;;;;;;5110603;28;20061;-79
2023/10/15 13:11:45;;;;;;;4.78;0.82;;;;;;;;;;5110834;28;20131;-80
2023/10/15 13:14:12;;;;;;;3.25;1.00;;;;;;;;;;5110345;28;20736;-81
2023/10/15 13:16:39;;;;;;;1.35;0.60;;;;;;;;;;5110662;28;20043;-79
2023/10/15 13:19:06;;;;;;;2.30;0.63;;;;;;;;;;5110615;28;20051;-80
2023/10/15 13:21:32;;;;;;;3.15;0.80;;;;;;;;;;5092868;28;20044;-81
2023/10/15 13:23:59;;;;;;;2.53;0.70;;;;;;;;;;5110176;28;20469;-81
2023/10/15 13:26:26;;;;;;;5.25;0.85;;;;;;;;;;5110619;28;20042;-79
2023/10/15 13:28:52;;;;;;;2.45;0.80;;;;;;;;;;5110456;28;20039;-80
2023/10/15 13:31:19;;;;;;;2.22;0.70;;;;;;;;;;5110426;28;20055;-80
2023/10/15 13:33:46;;;;;;;3.55;0.93;;;;;;;;;;5110470;28;20050;-80
2023/10/15 13:36:13;;;;;;;1.98;0.60;;;;;;;;;;5110207;28;20051;-81
2023/10/15 13:38:41;;;;;;;1.92;0.70;;;;;;;;;;5110091;28;20047;-81
2023/10/15 13:41:08;;;;;;;4.10;0.80;;;;;;;;;;5110077;28;20051;-80
2023/10/15 13:43:37;;;;;;;4.03;0.90;;;;;;;;;;5110575;28;20097;-80
2023/10/15 13:46:04;;;;;;;1.92;0.68;;;;;;;;;;5110292;28;20048;-80
2023/10/15 13:48:31;;;;;;;3.30;0.90;;;;;;;;;;5110397;28;20047;-82
2023/10/15 13:50:58;;;;;;;2.60;0.77;;;;;;;;;;5109622;28;20043;-73
2023/10/15 13:53:24;;;;;;;1.73;0.90;;;;;;;;;;5109717;28;20054;-77
2023/10/15 13:55:52;;;;;;;3.92;0.90;;;;;;;;;;5109553;28;20640;-80
2023/10/15 13:58:21;;;;;;;1.23;0.70;;;;;;;;;;5109808;28;20048;-82
2023/10/15 14:00:47;;;;;;;1.60;0.60;;;;;;;;;;5109436;28;20634;-82
2023/10/15 14:03:15;;;;;;;3.15;0.80;;;;;;;;;;5109748;28;20183;-80
2023/10/15 14:05:43;;;;;;;3.10;0.90;;;;;;;;;;5109634;28;20048;-82
2023/10/15 14:08:10;;;;;;;2.67;0.73;;;;;;;;;;5109401;28;20052;-82
2023/10/15 14:10:37;;;;;;;2.70;1.00;;;;;;;;;;5109470;28;20082;-81
2023/10/15 14:13:05;;;;;;;3.35;0.77;;;;;;;;;;5109715;28;20104;-76
2023/10/15 14:15:46;;;;;;;3.75;0.70;;;;;;;;;;5109369;28;20105;-79
2023/10/15 14:18:14;;;;;;;1.65;0.60;;;;;;;;;;5109722;28;20123;-80
2023/10/15 14:20:42;;;;;;;1.92;0.73;;;;;;;;;;5109508;28;20086;-81
2023/10/15 14:23:09;;;;;;;2.28;0.70;;;;;;;;;;5109465;28;20040;-79
2023/10/15 14:25:36;;;;;;;2.47;0.75;;;;;;;;;;5109163;28;20082;-76
2023/10/15 14:28:03;;;;;;;2.33;0.70;;;;;;;;;;5108170;28;20051;-75
2023/10/15 14:30:29;;;;;;;3.08;0.65;;;;;;;;;;5109104;28;20044;-71
2023/10/15 14:32:57;;;;;;;2.65;0.70;;;;;;;;;;5109345;28;20039;-70
2023/10/15 14:35:24;;;;;;;5.13;1.00;;;;;;;;;;5109081;28;20056;-74
2023/10/15 14:37:50;;;;;;;5.07;1.10;;;;;;;;;;5109205;28;20122;-80
2023/10/15 14:40:17;;;;;;;2.50;0.80;;;;;;;;;;5108257;28;20122;-72
2023/10/15 14:42:45;;;;;;;2.80;0.70;;;;;;;;;;5108808;28;20043;-78
2023/10/15 14:45:12;;;;;;;4.18;0.95;;;;;;;;;;5109213;28;20050;-81
2023/10/15 14:47:40;;;;;;;2.90;0.75;;;;;;;;;;5109497;28;20093;-81
2023/10/15 14:50:07;;;;;;;3.25;0.73;;;;;;;;;;5109032;28;20044;-78
2023/10/15 14:52:34;;;;;;;0.93;0.60;;;;;;;;;;5108898;28;20047;-76
2023/10/15 14:55:01;;;;;;;2.25;0.85;;;;;;;;;;5108645;28;20046;-81
2023/10/15 14:57:29;;;;;;;4.65;0.68;;;;;;;;;;5109684;28;20623;-79
2023/10/15 14:59:55;;;;;;;1.38;0.60;;;;;;;;;;5115991;28;20044;-78
2023/10/15 15:02:22;;;;;;;3.72;0.90;;;;;;;;;;5109564;28;20046;-81
2023/10/15 15:04:53;;;;;;;2.25;0.88;;;;;;;;;;5110041;28;20491;-81
2023/10/15 15:07:19;;;;;;;2.40;0.90;;;;;;;;;;5110520;28;20054;-77
2023/10/15 15:09:46;;;;;;;2.55;0.60;;;;;;;;;;5109293;28;20043;-82
2023/10/15 15:12:13;;;;;;;3.33;0.70;;;;;;;;;;5109181;28;20048;-81
2023/10/15 15:14:39;;;;;;;2.70;0.73;;;;;;;;;;5108923;28;20048;-80
2023/10/15 15:17:07;;;;;;;4.68;0.80;;;;;;;;;;5108596;28;20128;-75
2023/10/15 15:19:34;;;;;;;1.65;0.57;;;;;;;;;;5108937;28;20074;-80
2023/10/15 15:22:00;;;;;;;2.10;0.70;;;;;;;;;;5108828;28;20036;-79
2023/10/15 15:24:29;;;;;;;1.90;0.63;;;;;;;;;;5108861;28;20051;-80
2023/10/15 15:26:56;;;;;;;1.95;0.93;;;;;;;;;;5108906;28;20070;-78
2023/10/15 15:29:23;;;;;;;3.13;0.90;;;;;;;;;;5108850;28;20519;-81
2023/10/15 15:31:49;;;;;;;2.58;0.80;;;;;;;;;;5108423;28;20627;-82
2023/10/15 15:34:16;;;;;;;1.40;0.60;;;;;;;;;;5108426;28;20514;-81